Time;durP1;ratioP1;P1;durP2;ratioP2;P2;SDS_P1;SDS_P2;PMS_P1;PMS_P2;Temp;Humidity;BMP_temperature;BMP_pressure;BME280_temperature;BME280_humidity;BME280_pressure;Samples;Min_cycle;Max_cycle;Signal;HPM_P1;HPM_P2
2023/08/17 00:01:51;;;;;;;3.33;2.33;;;23.50;61.20;;;;;;5008292;28;20084;-48
2023/08/17 00:04:23;;;;;;;2.95;2.40;;;23.50;61.20;;;;;;4996983;28;20050;-48
2023/08/17 00:06:50;;;;;;;;;;;23.50;61.30;;;;;;5001407;28;20122;-50
2023/08/17 00:09:17;;;;;;;2.38;2.25;;;23.50;60.80;;;;;;5010887;28;19953;-51
2023/08/17 00:11:46;;;;;;;3.08;1.80;;;23.50;60.90;;;;;;5001586;28;20065;-51
2023/08/17 00:14:15;;;;;;;4.75;2.53;;;23.50;61.00;;;;;;4995542;28;20049;-51
2023/08/17 00:16:41;;;;;;;2.50;2.30;;;23.50;61.10;;;;;;5009109;28;20050;-51
2023/08/17 00:19:11;;;;;;;2.50;2.30;;;23.50;61.20;;;;;;5004782;28;20093;-49
2023/08/17 00:21:40;;;;;;;4.57;2.47;;;23.40;61.30;;;;;;4996313;28;20045;-51
2023/08/17 00:24:07;;;;;;;2.13;1.98;;;23.50;61.60;;;;;;5000607;28;20385;-50
2023/08/17 00:26:33;;;;;;;5.32;2.40;;;23.50;61.40;;;;;;5011943;28;20542;-51
2023/08/17 00:29:03;;;;;;;3.13;2.10;;;23.50;61.50;;;;;;5003838;28;20045;-51
2023/08/17 00:31:30;;;;;;;3.05;2.45;;;23.40;61.70;;;;;;5010628;28;20042;-49
2023/08/17 00:33:57;;;;;;;3.33;2.88;;;23.40;61.50;;;;;;4991754;28;20053;-51
2023/08/17 00:36:27;;;;;;;2.65;2.20;;;23.40;61.70;;;;;;4992030;28;20077;-50
2023/08/17 00:38:55;;;;;;;3.83;2.70;;;23.40;61.70;;;;;;5004654;28;20092;-51
2023/08/17 00:41:23;;;;;;;4.53;3.13;;;23.40;61.80;;;;;;4994304;28;20068;-51
2023/08/17 00:43:50;;;;;;;3.15;2.72;;;23.60;61.90;;;;;;4976828;28;20058;-47
2023/08/17 00:46:20;;;;;;;2.55;2.35;;;23.40;61.70;;;;;;4987397;28;20128;-50
2023/08/17 00:48:46;;;;;;;5.97;2.58;;;23.40;61.80;;;;;;4990445;28;20084;-50
2023/08/17 00:51:14;;;;;;;2.63;2.42;;;23.30;61.70;;;;;;5002912;28;20423;-51
2023/08/17 00:53:45;;;;;;;4.88;3.05;;;23.30;61.80;;;;;;5013615;28;20468;-51
2023/08/17 00:56:12;;;;;;;3.50;2.30;;;23.30;61.70;;;;;;5008112;28;20038;-51
2023/08/17 00:58:39;;;;;;;3.17;2.60;;;23.30;61.80;;;;;;4991437;28;20039;-51
2023/08/17 01:01:08;;;;;;;3.80;2.40;;;23.20;61.80;;;;;;4992306;28;20041;-51
2023/08/17 01:03:37;;;;;;;9.52;2.83;;;23.20;61.90;;;;;;4992102;28;20057;-51
2023/08/17 01:06:07;;;;;;;2.72;2.42;;;23.10;62.10;;;;;;4999167;28;20042;-49
2023/08/17 01:08:34;;;;;;;2.78;2.47;;;23.10;62.30;;;;;;4999004;28;20069;-49
2023/08/17 01:11:15;;;;;;;3.05;2.75;;;23.10;62.40;;;;;;5014739;28;20104;-50
2023/08/17 01:14:08;;;;;;;2.88;2.67;;;23.10;62.70;;;;;;5001848;28;20042;-50
2023/08/17 01:16:43;;;;;;;3.78;2.70;;;23.10;62.60;;;;;;4977948;28;20578;-51
2023/08/17 01:19:24;;;;;;;3.45;2.70;;;23.10;62.60;;;;;;4986492;28;20052;-50
2023/08/17 01:21:54;;;;;;;2.28;2.03;;;23.10;62.70;;;;;;5006317;28;20159;-48
2023/08/17 01:24:26;;;;;;;4.25;2.33;;;23.10;62.50;;;;;;4996885;28;20148;-51
2023/08/17 01:26:55;;;;;;;3.88;2.65;;;23.10;62.60;;;;;;5004805;28;20042;-50
2023/08/17 01:29:22;;;;;;;4.07;3.67;;;23.10;62.60;;;;;;5010964;28;20527;-51
2023/08/17 01:32:08;;;;;;;4.68;2.72;;;23.10;62.70;;;;;;5007564;28;20046;-50
2023/08/17 01:34:49;;;;;;;2.33;2.13;;;23.10;62.90;;;;;;4982048;28;20053;-49
2023/08/17 01:37:22;;;;;;;2.42;2.17;;;23.00;62.80;;;;;;4997187;28;20034;-48
2023/08/17 01:39:56;;;;;;;3.90;3.08;;;23.00;62.70;;;;;;5009329;28;20048;-47
2023/08/17 01:42:25;;;;;;;3.17;2.80;;;23.00;62.80;;;;;;5003108;28;20707;-49
2023/08/17 01:44:59;;;;;;;4.20;2.35;;;22.90;62.80;;;;;;4996025;28;20712;-51
2023/08/17 01:47:27;;;;;;;3.03;2.33;;;22.90;63.00;;;;;;4980657;28;20532;-48
2023/08/17 01:49:59;;;;;;;4.03;2.60;;;22.90;62.90;;;;;;4988135;28;20054;-50
2023/08/17 01:52:27;;;;;;;2.53;2.30;;;22.80;63.00;;;;;;4992060;28;20586;-50
2023/08/17 01:54:57;;;;;;;3.33;2.50;;;22.80;63.10;;;;;;4993534;28;20101;-51
2023/08/17 01:57:23;;;;;;;3.13;2.70;;;22.80;63.10;;;;;;4991069;28;20046;-51
2023/08/17 01:59:54;;;;;;;3.78;2.42;;;22.80;63.10;;;;;;4988141;28;20121;-50
2023/08/17 02:02:22;;;;;;;3.08;2.72;;;22.70;63.20;;;;;;5008267;28;20062;-49
2023/08/17 02:04:51;;;;;;;3.17;2.17;;;22.70;63.40;;;;;;4979851;28;20133;-48
2023/08/17 02:07:20;;;;;;;3.30;2.92;;;22.70;63.60;;;;;;5001664;28;20121;-50
2023/08/17 02:09:48;;;;;;;2.38;2.17;;;22.70;63.50;;;;;;4992779;28;20770;-50
2023/08/17 02:12:15;;;;;;;3.00;2.70;;;22.70;63.50;;;;;;5011795;28;20042;-50
2023/08/17 02:14:46;;;;;;;3.60;2.40;;;22.60;63.50;;;;;;4993418;28;20578;-50
2023/08/17 02:17:13;;;;;;;2.95;2.38;;;22.60;63.60;;;;;;5000983;28;20034;-51
2023/08/17 02:19:40;;;;;;;2.65;2.45;;;22.60;63.70;;;;;;4988235;28;20104;-49
2023/08/17 02:22:07;;;;;;;3.78;2.33;;;22.60;63.80;;;;;;5012947;28;20415;-51
2023/08/17 02:24:35;;;;;;;6.22;2.50;;;22.60;63.90;;;;;;5007419;28;20041;-47
2023/08/17 02:27:04;;;;;;;2.47;2.28;;;22.60;64.00;;;;;;5009233;28;20048;-47
2023/08/17 02:29:35;;;;;;;3.13;2.25;;;22.60;64.00;;;;;;5017436;28;20041;-51
2023/08/17 02:32:02;;;;;;;3.38;2.63;;;22.60;64.10;;;;;;5011663;28;20132;-50
2023/08/17 02:34:29;;;;;;;2.85;2.35;;;22.60;63.90;;;;;;5002984;28;20506;-47
2023/08/17 02:37:03;;;;;;;2.55;2.30;;;22.60;63.90;;;;;;5003731;28;20077;-46
2023/08/17 02:39:30;;;;;;;2.90;2.50;;;22.60;64.20;;;;;;5012093;28;20107;-48
2023/08/17 02:42:01;;;;;;;4.32;2.65;;;22.60;64.00;;;;;;5001032;28;20046;-54
2023/08/17 02:44:42;;;;;;;;;;;22.60;64.00;;;;;;4994236;28;20584;-51
2023/08/17 02:47:11;;;;;;;6.50;2.40;;;22.70;63.50;;;;;;5015650;28;19961;-48
2023/08/17 02:49:38;;;;;;;3.97;2.30;;;22.70;63.50;;;;;;5025959;23;20563;-48
2023/08/17 02:52:05;;;;;;;3.60;2.45;;;22.60;63.60;;;;;;5000972;28;20100;-50
2023/08/17 02:54:36;;;;;;;5.15;2.95;;;22.60;63.60;;;;;;4996124;28;20054;-48
2023/08/17 02:57:05;;;;;;;3.65;2.80;;;22.60;63.70;;;;;;5010816;28;20057;-51
2023/08/17 02:59:32;;;;;;;3.30;2.72;;;22.60;63.60;;;;;;5005209;28;20046;-51
2023/08/17 03:02:09;;;;;;;3.22;2.75;;;22.60;63.60;;;;;;5010365;28;20084;-50
2023/08/17 03:04:36;;;;;;;3.20;2.88;;;22.60;63.70;;;;;;5003109;28;20116;-51
2023/08/17 03:07:03;;;;;;;3.28;2.92;;;22.50;63.60;;;;;;4993982;28;20041;-52
2023/08/17 03:09:29;;;;;;;3.05;2.65;;;22.50;63.60;;;;;;4991858;28;20149;-51
2023/08/17 03:11:56;;;;;;;2.65;2.45;;;22.50;64.40;;;;;;5007488;28;20070;-51
2023/08/17 03:14:23;;;;;;;2.72;2.47;;;22.40;63.70;;;;;;5002577;28;20035;-49
2023/08/17 03:16:54;;;;;;;4.90;3.22;;;22.40;63.70;;;;;;5002906;28;20042;-52
2023/08/17 03:19:23;;;;;;;4.63;3.03;;;22.40;63.70;;;;;;4995038;28;20108;-49
2023/08/17 03:21:50;;;;;;;2.97;2.78;;;22.30;63.70;;;;;;5006505;28;20061;-55
2023/08/17 03:24:20;;;;;;;2.72;2.50;;;22.30;63.70;;;;;;4994571;28;20053;-55
2023/08/17 03:26:49;;;;;;;3.08;2.78;;;22.30;63.90;;;;;;5006656;28;20060;-55
2023/08/17 03:29:18;;;;;;;3.38;2.83;;;22.30;64.00;;;;;;5003221;28;20139;-53
2023/08/17 03:31:46;;;;;;;3.03;2.70;;;22.30;63.90;;;;;;5006263;28;20038;-54
2023/08/17 03:34:16;;;;;;;5.18;2.85;;;22.20;63.80;;;;;;4993191;28;20049;-53
2023/08/17 03:36:42;;;;;;;3.70;2.50;;;22.20;63.80;;;;;;4986680;28;20049;-53
2023/08/17 03:39:12;;;;;;;3.65;2.72;;;22.20;63.70;;;;;;4992597;28;20050;-51
2023/08/17 03:41:44;;;;;;;4.60;2.85;;;22.20;63.70;;;;;;5002711;28;20045;-55
2023/08/17 03:44:10;;;;;;;3.45;2.80;;;22.20;63.60;;;;;;5005398;28;20045;-52
2023/08/17 03:46:37;;;;;;;3.10;2.75;;;22.10;63.70;;;;;;5004290;28;20042;-51
2023/08/17 03:49:04;;;;;;;4.97;2.75;;;22.10;63.80;;;;;;5009335;28;20539;-54
2023/08/17 03:51:33;;;;;;;4.35;2.97;;;22.10;63.90;;;;;;4992608;28;20042;-50
2023/08/17 03:54:00;;;;;;;3.20;2.63;;;22.00;64.00;;;;;;5003941;28;20559;-56
2023/08/17 03:56:26;;;;;;;2.72;2.47;;;22.10;63.80;;;;;;4987362;28;20045;-53
2023/08/17 03:58:53;;;;;;;4.07;3.38;;;22.00;63.70;;;;;;4987587;28;20046;-54
2023/08/17 04:01:23;;;;;;;2.95;2.65;;;22.00;63.60;;;;;;4984965;28;20050;-54
2023/08/17 04:03:51;;;;;;;4.32;2.90;;;22.00;63.70;;;;;;5004976;28;20066;-51
2023/08/17 04:06:17;;;;;;;4.13;2.88;;;22.00;63.70;;;;;;4988295;28;20053;-52
2023/08/17 04:08:48;;;;;;;2.90;2.70;;;21.90;63.60;;;;;;5009355;28;20539;-55
2023/08/17 04:11:19;;;;;;;4.30;2.40;;;21.90;63.60;;;;;;4984931;28;20141;-51
2023/08/17 04:13:49;;;;;;;3.38;2.58;;;21.90;63.70;;;;;;4983066;28;20046;-51
2023/08/17 04:16:19;;;;;;;3.97;2.73;;;21.80;63.70;;;;;;5007100;28;20038;-53
2023/08/17 04:18:45;;;;;;;2.55;2.35;;;21.80;63.80;;;;;;4988320;28;20285;-53
2023/08/17 04:21:12;;;;;;;3.55;2.47;;;21.80;63.90;;;;;;5003508;28;20069;-49
2023/08/17 04:23:39;;;;;;;3.75;2.80;;;21.80;63.90;;;;;;4984669;28;20048;-53
2023/08/17 04:26:09;;;;;;;5.43;2.53;;;21.80;63.90;;;;;;5006109;28;20041;-53
2023/08/17 04:28:36;;;;;;;3.28;2.63;;;21.80;63.90;;;;;;5003915;28;20042;-56
2023/08/17 04:31:06;;;;;;;5.28;2.80;;;21.70;63.80;;;;;;5006928;28;20038;-50
2023/08/17 04:33:37;;;;;;;3.58;2.53;;;21.70;64.00;;;;;;4987570;28;20046;-51
2023/08/17 04:36:07;;;;;;;2.90;2.70;;;21.70;64.00;;;;;;4987194;28;20049;-52
2023/08/17 04:38:43;;;;;;;3.75;2.65;;;21.70;64.00;;;;;;5002639;28;20618;-52
2023/08/17 04:41:10;;;;;;;5.28;3.10;;;21.60;64.10;;;;;;5004991;28;20042;-54
2023/08/17 04:43:36;;;;;;;2.72;2.53;;;21.70;64.30;;;;;;5007422;28;20650;-53
2023/08/17 04:46:04;;;;;;;6.55;2.70;;;21.60;64.20;;;;;;4986834;28;20046;-52
2023/08/17 04:48:31;;;;;;;3.65;3.05;;;21.60;64.20;;;;;;5012540;28;20093;-54
2023/08/17 04:50:57;;;;;;;3.92;2.72;;;21.60;64.30;;;;;;4988629;28;20062;-54
2023/08/17 04:53:24;;;;;;;6.22;3.05;;;21.60;64.40;;;;;;4988967;28;20046;-54
2023/08/17 04:55:51;;;;;;;5.30;2.70;;;21.60;64.40;;;;;;5000733;28;20045;-55
2023/08/17 04:58:18;;;;;;;4.07;3.00;;;21.60;64.50;;;;;;5004829;28;20587;-51
2023/08/17 05:00:45;;;;;;;4.38;3.60;;;21.60;64.50;;;;;;5009185;28;20056;-52
2023/08/17 05:03:11;;;;;;;3.70;3.00;;;21.60;64.50;;;;;;5009183;28;20038;-54
2023/08/17 05:05:57;;;;;;;6.10;3.22;;;21.60;64.50;;;;;;4989458;28;20056;-52
2023/08/17 05:08:25;;;;;;;4.45;3.67;;;21.60;64.60;;;;;;4990916;28;20532;-51
2023/08/17 05:10:51;;;;;;;5.80;3.47;;;21.60;64.50;;;;;;5008005;28;20405;-54
2023/08/17 05:13:19;;;;;;;2.90;2.60;;;21.60;64.50;;;;;;5004138;28;20030;-55
2023/08/17 05:15:46;;;;;;;5.13;3.20;;;21.70;64.50;;;;;;4990213;28;20054;-56
2023/08/17 05:18:14;;;;;;;5.68;3.50;;;21.70;64.50;;;;;;5003661;28;20497;-50
2023/08/17 05:20:41;;;;;;;3.58;3.28;;;21.70;65.00;;;;;;5006073;28;20103;-53
2023/08/17 05:23:08;;;;;;;7.18;3.15;;;21.70;64.30;;;;;;5001081;28;20092;-53
2023/08/17 05:25:34;;;;;;;4.63;3.25;;;21.70;64.50;;;;;;4990713;28;20520;-51
2023/08/17 05:28:01;;;;;;;4.07;3.17;;;21.70;64.50;;;;;;5001034;28;20050;-55
2023/08/17 05:30:28;;;;;;;4.60;3.40;;;21.70;64.60;;;;;;5003153;28;20045;-49
2023/08/17 05:32:57;;;;;;;3.90;3.42;;;21.70;64.50;;;;;;5006180;28;20046;-54
2023/08/17 05:35:26;;;;;;;3.28;2.92;;;21.70;64.50;;;;;;4989514;28;20551;-51
2023/08/17 05:37:52;;;;;;;6.57;3.75;;;21.70;64.70;;;;;;5002445;28;20507;-53
2023/08/17 05:40:19;;;;;;;4.65;3.35;;;21.70;64.70;;;;;;5007400;28;20133;-50
2023/08/17 05:42:46;;;;;;;4.82;3.38;;;21.70;64.70;;;;;;5008478;28;20076;-51
2023/08/17 05:45:12;;;;;;;4.00;3.33;;;21.70;64.70;;;;;;4991243;28;20141;-53
2023/08/17 05:47:39;;;;;;;4.28;3.47;;;21.80;64.70;;;;;;5009228;28;20045;-52
2023/08/17 05:50:06;;;;;;;3.22;2.92;;;21.80;64.60;;;;;;5010152;28;20045;-55
2023/08/17 05:52:33;;;;;;;3.03;2.83;;;21.80;64.60;;;;;;5009062;28;20120;-51
2023/08/17 05:55:00;;;;;;;3.70;3.13;;;21.80;64.50;;;;;;5007543;28;20507;-50
2023/08/17 05:57:27;;;;;;;4.30;3.10;;;21.80;64.60;;;;;;5001166;28;20085;-52
2023/08/17 05:59:54;;;;;;;3.40;3.10;;;21.80;64.40;;;;;;5006586;28;20037;-49
2023/08/17 06:02:21;;;;;;;3.53;2.72;;;21.90;64.40;;;;;;5011666;28;20049;-51
2023/08/17 06:04:48;;;;;;;3.83;3.03;;;21.90;64.50;;;;;;5010215;28;20125;-52
2023/08/17 06:07:14;;;;;;;4.20;3.30;;;21.90;64.40;;;;;;5006971;28;20061;-50
2023/08/17 06:09:41;;;;;;;5.25;3.72;;;21.90;64.70;;;;;;5011867;28;20125;-53
2023/08/17 06:12:08;;;;;;;5.63;4.15;;;21.90;64.50;;;;;;5009329;28;20528;-49
2023/08/17 06:14:35;;;;;;;5.90;4.03;;;21.90;64.50;;;;;;5007494;28;20649;-51
2023/08/17 06:17:01;;;;;;;4.32;3.92;;;21.90;64.70;;;;;;5010744;28;20129;-52
2023/08/17 06:19:28;;;;;;;4.95;4.00;;;21.90;64.50;;;;;;5008893;28;20463;-50
2023/08/17 06:21:55;;;;;;;5.28;4.78;;;22.00;64.50;;;;;;5010280;28;20116;-52
2023/08/17 06:24:21;;;;;;;5.07;4.18;;;22.00;64.50;;;;;;5010670;28;20050;-51
2023/08/17 06:26:48;;;;;;;4.78;4.32;;;22.00;64.60;;;;;;5012118;28;20084;-55
2023/08/17 06:29:15;;;;;;;6.80;4.68;;;22.00;64.50;;;;;;5008654;28;20066;-52
2023/08/17 06:31:41;;;;;;;5.80;5.30;;;22.10;64.60;;;;;;5012764;28;20049;-51
2023/08/17 06:34:08;;;;;;;9.05;6.18;;;22.10;64.50;;;;;;5010091;28;20109;-53
2023/08/17 06:36:38;;;;;;;6.88;6.25;;;22.10;64.40;;;;;;5010694;28;20112;-51
2023/08/17 06:39:05;;;;;;;7.07;6.35;;;22.20;64.50;;;;;;5006020;28;20055;-49
2023/08/17 06:41:32;;;;;;;7.50;6.63;;;22.20;64.10;;;;;;5012662;28;20101;-52
2023/08/17 06:43:58;;;;;;;8.63;7.28;;;22.20;64.20;;;;;;5010423;28;20123;-50
2023/08/17 06:46:25;;;;;;;9.25;7.88;;;22.20;64.20;;;;;;5009676;28;20085;-50
2023/08/17 06:48:52;;;;;;;9.00;7.78;;;22.20;64.20;;;;;;5005953;28;20046;-53
2023/08/17 06:51:18;;;;;;;9.10;8.20;;;22.30;65.00;;;;;;5010437;28;20045;-55
2023/08/17 06:53:45;;;;;;;8.32;7.53;;;22.30;64.10;;;;;;5007446;28;20084;-52
2023/08/17 06:56:12;;;;;;;9.18;8.27;;;22.30;64.30;;;;;;5001286;28;20069;-50
2023/08/17 06:58:41;;;;;;;15.23;11.73;;;22.40;64.30;;;;;;4991782;28;20062;-56
2023/08/17 07:01:07;;;;;;;12.45;11.10;;;22.40;64.20;;;;;;5008807;28;20122;-54
2023/08/17 07:03:34;;;;;;;11.75;10.52;;;22.50;64.30;;;;;;5010132;28;20070;-56
2023/08/17 07:06:01;;;;;;;15.05;12.32;;;22.50;63.90;;;;;;5010447;28;20497;-51
2023/08/17 07:08:30;;;;;;;17.75;12.38;;;22.50;63.90;;;;;;5008393;28;20052;-53
2023/08/17 07:10:57;;;;;;;16.92;12.48;;;22.50;63.70;;;;;;5008818;28;20564;-52
2023/08/17 07:13:23;;;;;;;14.07;12.55;;;22.60;63.50;;;;;;5009422;28;20077;-53
2023/08/17 07:15:50;;;;;;;19.48;13.18;;;22.60;63.60;;;;;;5011060;28;20050;-52
2023/08/17 07:18:17;;;;;;;14.98;12.30;;;22.60;63.60;;;;;;5005605;28;20038;-52
2023/08/17 07:20:44;;;;;;;16.25;13.82;;;22.60;63.40;;;;;;5011100;28;20061;-53
2023/08/17 07:23:12;;;;;;;19.05;15.55;;;22.60;63.50;;;;;;5009824;28;20093;-52
2023/08/17 07:25:39;;;;;;;21.42;18.05;;;22.60;63.60;;;;;;5011276;28;20559;-52
2023/08/17 07:28:06;;;;;;;24.90;17.73;;;22.60;63.60;;;;;;5011089;28;20088;-52
2023/08/17 07:30:33;;;;;;;23.85;18.80;;;22.60;63.70;;;;;;5008580;28;20041;-50
2023/08/17 07:33:00;;;;;;;23.25;20.05;;;22.60;63.70;;;;;;5015439;28;20038;-54
2023/08/17 07:35:26;;;;;;;28.80;21.05;;;22.60;63.60;;;;;;5010586;28;20100;-53
2023/08/17 07:37:53;;;;;;;30.17;21.50;;;22.60;63.70;;;;;;5011488;28;20068;-52
2023/08/17 07:40:34;;;;;;;28.35;22.23;;;22.60;63.90;;;;;;5008264;28;20030;-54
2023/08/17 07:43:01;;;;;;;29.98;22.90;;;22.60;63.80;;;;;;5010182;28;20070;-55
2023/08/17 07:45:28;;;;;;;30.55;23.27;;;22.60;63.70;;;;;;5008710;28;20041;-54
2023/08/17 07:47:54;;;;;;;28.77;20.83;;;22.60;63.80;;;;;;5000932;28;20121;-54
2023/08/17 07:50:21;;;;;;;25.92;22.45;;;22.60;63.70;;;;;;5001207;28;20474;-51
2023/08/17 07:52:51;;;;;;;39.53;24.45;;;22.60;63.60;;;;;;4996513;28;20486;-53
2023/08/17 07:55:18;;;;;;;30.52;23.70;;;22.60;63.50;;;;;;5004324;28;20065;-52
2023/08/17 07:57:44;;;;;;;26.40;22.25;;;22.60;63.50;;;;;;4996881;28;20167;-55
2023/08/17 08:00:12;;;;;;;28.60;22.35;;;22.60;63.60;;;;;;5001247;28;20087;-56
2023/08/17 08:02:38;;;;;;;29.25;23.70;;;22.60;63.80;;;;;;4993639;28;20397;-53
2023/08/17 08:05:05;;;;;;;29.98;23.75;;;22.60;63.70;;;;;;5002224;28;20045;-56
2023/08/17 08:07:32;;;;;;;32.78;26.92;;;22.60;63.90;;;;;;4997120;28;20124;-53
2023/08/17 08:09:59;;;;;;;32.25;24.52;;;22.60;63.90;;;;;;5008799;28;20742;-54
2023/08/17 08:12:26;;;;;;;29.85;24.65;;;22.60;63.70;;;;;;4981506;28;20137;-52
2023/08/17 08:14:52;;;;;;;27.70;24.08;;;22.60;63.70;;;;;;4991413;28;20069;-53
2023/08/17 08:17:19;;;;;;;29.85;24.30;;;22.60;63.70;;;;;;5003958;28;20132;-52
2023/08/17 08:19:50;;;;;;;32.97;26.02;;;22.60;63.60;;;;;;5008682;28;20061;-52
2023/08/17 08:22:17;;;;;;;30.75;25.58;;;22.60;63.80;;;;;;4981571;28;20097;-55
2023/08/17 08:24:44;;;;;;;38.00;28.52;;;22.50;63.90;;;;;;4991197;28;20046;-57
2023/08/17 08:27:11;;;;;;;37.63;29.08;;;22.60;64.00;;;;;;5009360;28;20038;-52
2023/08/17 08:29:37;;;;;;;38.55;29.05;;;22.60;64.10;;;;;;5004410;28;20088;-50
2023/08/17 08:32:04;;;;;;;32.83;28.98;;;22.60;64.10;;;;;;5009928;28;20120;-54
2023/08/17 08:34:31;;;;;;;38.85;30.38;;;22.70;64.20;;;;;;4992772;28;20124;-54
2023/08/17 08:36:57;;;;;;;36.63;30.90;;;22.70;64.00;;;;;;4995542;28;20564;-50
2023/08/17 08:39:27;;;;;;;38.67;31.40;;;22.70;63.90;;;;;;5003218;28;20504;-50
2023/08/17 08:41:55;;;;;;;38.45;29.67;;;22.80;64.10;;;;;;5005370;28;20034;-55
2023/08/17 08:44:22;;;;;;;35.67;30.23;;;22.80;64.10;;;;;;4992350;28;20069;-51
2023/08/17 08:46:49;;;;;;;38.28;30.70;;;22.80;64.00;;;;;;4996100;28;20469;-52
2023/08/17 08:49:21;;;;;;;33.95;29.25;;;22.90;64.00;;;;;;5007768;28;20050;-53
2023/08/17 08:51:50;;;;;;;36.37;30.10;;;22.90;64.00;;;;;;5004608;28;20771;-54
2023/08/17 08:54:25;;;;;;;35.88;29.85;;;23.00;63.70;;;;;;4989237;28;20359;-52
2023/08/17 08:57:01;;;;;;;35.47;29.77;;;23.00;63.50;;;;;;4998542;28;20444;-52
2023/08/17 08:59:29;;;;;;;37.10;28.48;;;23.00;63.50;;;;;;5033992;23;20060;-50
2023/08/17 09:01:57;;;;;;;34.17;29.77;;;23.10;63.30;;;;;;5027095;28;20091;-50
2023/08/17 09:04:25;;;;;;;34.72;30.58;;;23.10;63.90;;;;;;5028585;28;20056;-49
2023/08/17 09:06:54;;;;;;;36.42;29.60;;;23.10;63.30;;;;;;5028879;28;20045;-50
2023/08/17 09:09:21;;;;;;;35.70;29.02;;;23.10;63.30;;;;;;5021591;28;20120;-46
2023/08/17 09:11:48;;;;;;;36.72;28.95;;;23.10;63.30;;;;;;5029328;28;20099;-50
2023/08/17 09:14:14;;;;;;;34.65;28.52;;;23.20;63.50;;;;;;5021183;28;20129;-50
2023/08/17 09:16:41;;;;;;;35.22;27.63;;;23.20;63.20;;;;;;5012331;28;20034;-50
2023/08/17 09:19:08;;;;;;;35.05;27.23;;;23.20;63.20;;;;;;5018513;28;20041;-50
2023/08/17 09:21:34;;;;;;;40.97;27.63;;;23.30;63.20;;;;;;5028248;28;20112;-49
2023/08/17 09:24:01;;;;;;;30.42;25.02;;;23.30;63.30;;;;;;5016666;28;20183;-47
2023/08/17 09:26:32;;;;;;;33.47;25.50;;;23.30;63.10;;;;;;5013897;28;20078;-47
2023/08/17 09:29:00;;;;;;;29.23;24.30;;;23.30;63.10;;;;;;5022244;28;20052;-50
2023/08/17 09:31:30;;;;;;;33.83;25.77;;;23.40;63.30;;;;;;5028611;28;20037;-51
2023/08/17 09:33:57;;;;;;;26.88;23.10;;;23.40;63.00;;;;;;4994582;28;20034;-48
2023/08/17 09:36:28;;;;;;;31.65;23.48;;;23.50;63.00;;;;;;5014195;28;20112;-48
2023/08/17 09:38:57;;;;;;;29.98;24.83;;;23.60;63.00;;;;;;5014160;28;20491;-51
2023/08/17 09:41:23;;;;;;;31.23;28.02;;;23.60;62.70;;;;;;5028780;28;20041;-50
2023/08/17 09:43:55;;;;;;;31.23;26.58;;;23.70;62.80;;;;;;5018052;28;20045;-50
2023/08/17 09:46:25;;;;;;;33.33;28.98;;;23.70;62.60;;;;;;5014041;28;20529;-50
2023/08/17 09:48:53;;;;;;;32.15;28.73;;;23.80;62.80;;;;;;5026057;28;20041;-48
2023/08/17 09:51:20;;;;;;;31.85;26.55;;;23.80;62.20;;;;;;5022214;28;20579;-50
2023/08/17 09:53:52;;;;;;;34.38;30.02;;;23.80;62.20;;;;;;5024890;28;20116;-48
2023/08/17 09:56:27;;;;;;;35.22;29.77;;;23.80;62.00;;;;;;5018615;28;20485;-52
2023/08/17 09:58:54;;;;;;;35.78;30.42;;;23.90;62.10;;;;;;5012413;28;20061;-51
2023/08/17 10:01:22;;;;;;;38.58;31.95;;;23.90;62.10;;;;;;5027853;28;20065;-59
2023/08/17 10:03:50;;;;;;;36.65;32.30;;;23.90;62.10;;;;;;5018275;28;20049;-58
2023/08/17 10:06:22;;;;;;;38.03;32.30;;;23.90;62.50;;;;;;4995274;28;20046;-57
2023/08/17 10:08:56;;;;;;;38.22;33.08;;;23.90;61.60;;;;;;5027254;28;20120;-57
2023/08/17 10:11:23;;;;;;;40.22;31.80;;;23.80;61.60;;;;;;5028015;28;20076;-57
2023/08/17 10:14:12;;;;;;;33.33;29.15;;;23.80;61.70;;;;;;5018202;28;20096;-57
2023/08/17 10:16:45;;;;;;;34.80;29.30;;;23.80;62.20;;;;;;5019745;28;20384;-58
2023/08/17 10:19:26;;;;;;;37.47;31.52;;;23.80;62.20;;;;;;5026883;28;20048;-57
2023/08/17 10:22:16;;;;;;;33.38;29.25;;;23.80;62.30;;;;;;5027204;28;20143;-57
2023/08/17 10:24:46;;;;;;;36.55;31.27;;;23.80;62.20;;;;;;5017008;28;20037;-52
2023/08/17 10:27:13;;;;;;;37.22;31.83;;;23.80;62.20;;;;;;5027399;28;20492;-48
2023/08/17 10:29:41;;;;;;;37.03;31.27;;;23.80;62.30;;;;;;5028812;28;20149;-53
2023/08/17 10:32:08;;;;;;;41.08;32.33;;;23.80;62.30;;;;;;5027216;28;20041;-51
2023/08/17 10:34:36;;;;;;;40.03;31.20;;;23.90;62.30;;;;;;5002261;28;20049;-52
2023/08/17 10:37:04;;;;;;;37.35;31.08;;;24.00;62.50;;;;;;5028470;28;20041;-52
2023/08/17 10:39:31;;;;;;;35.47;29.85;;;24.00;62.40;;;;;;5029340;28;20683;-53
2023/08/17 10:41:58;;;;;;;33.97;30.05;;;24.10;62.50;;;;;;5028484;28;20452;-53
2023/08/17 10:44:39;;;;;;;32.08;27.60;;;24.20;61.80;;;;;;5025218;28;20120;-52
2023/08/17 10:47:25;;;;;;;37.17;29.65;;;24.20;61.70;;;;;;5030064;28;20045;-50
2023/08/17 10:49:55;;;;;;;34.35;29.02;;;24.20;61.50;;;;;;5027420;28;20104;-52
2023/08/17 10:52:44;;;;;;;39.17;32.00;;;24.20;61.40;;;;;;5027914;28;20049;-50
2023/08/17 10:55:14;;;;;;;38.70;32.75;;;24.20;61.60;;;;;;5028801;28;20103;-51
2023/08/17 10:57:42;;;;;;;38.85;33.15;;;24.20;61.70;;;;;;5025794;28;20091;-52
2023/08/17 11:00:31;;;;;;;43.15;36.90;;;24.20;61.90;;;;;;5024982;28;20686;-53
2023/08/17 11:03:00;;;;;;;42.25;36.97;;;24.30;61.80;;;;;;5024210;28;20041;-51
2023/08/17 11:05:52;;;;;;;40.05;35.05;;;24.30;61.60;;;;;;5020336;28;20411;-53
2023/08/17 11:08:31;;;;;;;45.57;36.93;;;24.30;61.60;;;;;;5029709;28;20518;-53
2023/08/17 11:11:07;;;;;;;43.53;36.22;;;24.40;61.60;;;;;;5027769;28;20113;-52
2023/08/17 11:13:36;;;;;;;44.13;35.13;;;24.40;61.40;;;;;;5022151;28;20127;-51
2023/08/17 11:16:05;;;;;;;45.78;36.20;;;24.40;61.40;;;;;;5018339;28;20065;-53
2023/08/17 11:18:33;;;;;;;45.03;35.50;;;24.40;61.40;;;;;;5029172;28;20049;-52
2023/08/17 11:21:03;;;;;;;41.67;34.47;;;24.40;61.20;;;;;;5023698;28;20076;-51
2023/08/17 11:23:31;;;;;;;45.30;36.00;;;24.50;61.00;;;;;;5014852;28;20042;-51
2023/08/17 11:25:58;;;;;;;40.58;34.40;;;24.40;61.10;;;;;;5022424;28;20076;-53
2023/08/17 11:28:26;;;;;;;43.83;36.70;;;24.40;61.00;;;;;;5027539;28;20503;-53
2023/08/17 11:30:59;;;;;;;41.63;35.65;;;24.40;61.00;;;;;;5030356;28;20041;-53
2023/08/17 11:33:29;;;;;;;41.92;34.67;;;24.40;61.30;;;;;;5025008;28;20046;-53
2023/08/17 11:35:57;;;;;;;39.20;34.10;;;24.40;61.50;;;;;;5025120;28;20061;-51
2023/08/17 11:38:33;;;;;;;40.47;31.77;;;24.40;61.70;;;;;;5024038;28;20052;-51
2023/08/17 11:41:01;;;;;;;35.08;30.85;;;24.40;61.60;;;;;;5030811;28;20120;-53
2023/08/17 11:43:29;;;;;;;38.17;30.63;;;24.50;61.80;;;;;;5028265;28;20050;-51
2023/08/17 11:45:56;;;;;;;36.42;29.45;;;24.50;61.80;;;;;;5018532;28;20073;-51
2023/08/17 11:48:26;;;;;;;37.40;30.88;;;24.60;61.70;;;;;;5018491;28;20065;-49
2023/08/17 11:50:53;;;;;;;35.80;27.55;;;24.70;61.60;;;;;;5030468;28;20046;-53
2023/08/17 11:53:21;;;;;;;34.17;27.38;;;24.70;61.50;;;;;;5023593;28;20041;-52
2023/08/17 11:55:48;;;;;;;33.30;27.63;;;24.80;61.10;;;;;;5027835;28;20045;-52
2023/08/17 11:58:56;;;;;;;34.15;27.23;;;24.80;61.20;;;;;;5010380;28;20038;-51
2023/08/17 12:01:23;;;;;;;38.35;28.70;;;24.90;61.00;;;;;;5028386;28;20046;-53
2023/08/17 12:03:50;;;;;;;30.52;25.73;;;24.90;61.20;;;;;;5027838;28;20073;-53
2023/08/17 12:06:17;;;;;;;30.75;26.73;;;24.90;61.00;;;;;;5019114;28;20129;-53
2023/08/17 12:08:46;;;;;;;30.58;25.58;;;25.10;61.10;;;;;;5024297;28;20052;-52
2023/08/17 12:11:17;;;;;;;30.52;27.00;;;25.10;61.10;;;;;;5030203;28;20037;-53
2023/08/17 12:13:52;;;;;;;32.53;26.42;;;25.10;60.80;;;;;;5024041;28;20041;-53
2023/08/17 12:16:22;;;;;;;31.25;25.98;;;25.20;60.70;;;;;;5020957;28;20041;-53
2023/08/17 12:18:50;;;;;;;29.30;24.77;;;25.30;60.50;;;;;;5029304;28;20046;-53
2023/08/17 12:21:20;;;;;;;27.67;24.67;;;25.30;60.30;;;;;;5023082;28;20038;-52
2023/08/17 12:23:47;;;;;;;32.17;26.77;;;25.40;60.40;;;;;;5024058;28;20045;-50
2023/08/17 12:26:21;;;;;;;29.95;25.50;;;25.40;60.30;;;;;;5028424;28;20045;-53
2023/08/17 12:28:52;;;;;;;30.25;25.67;;;25.50;59.80;;;;;;5028226;28;20068;-53
2023/08/17 12:31:22;;;;;;;29.73;25.17;;;25.60;60.00;;;;;;5028435;28;20053;-52
2023/08/17 12:33:51;;;;;;;34.50;29.43;;;25.60;59.80;;;;;;5027809;28;20087;-52
2023/08/17 12:36:18;;;;;;;33.72;28.98;;;25.60;59.80;;;;;;5001805;28;20273;-52
2023/08/17 12:38:46;;;;;;;32.97;28.83;;;25.60;59.40;;;;;;5024082;28;20064;-52
2023/08/17 12:41:13;;;;;;;36.20;29.55;;;25.70;59.30;;;;;;5026109;28;20041;-53
2023/08/17 12:43:40;;;;;;;36.03;29.33;;;25.70;59.50;;;;;;5024822;28;20045;-51
2023/08/17 12:46:06;;;;;;;32.60;29.10;;;25.70;59.40;;;;;;5023515;28;20555;-53
2023/08/17 12:48:33;;;;;;;31.05;27.38;;;25.60;59.20;;;;;;5025416;28;20088;-52